Time;durP1;ratioP1;P1;durP2;ratioP2;P2;SDS_P1;SDS_P2;PMS_P1;PMS_P2;Temp;Humidity;BMP_temperature;BMP_pressure;BME280_temperature;BME280_humidity;BME280_pressure;Samples;Min_cycle;Max_cycle;Signal;HPM_P1;HPM_P2
2023/06/08 00:01:54;;;;;;;2.85;2.63;;;16.40;85.50;;;;;;5048188;28;20392;-81
2023/06/08 00:04:22;;;;;;;2.47;2.28;;;16.30;85.40;;;;;;5052910;28;20048;-81
2023/06/08 00:06:49;;;;;;;2.40;2.20;;;16.30;85.20;;;;;;5066913;28;20389;-82
2023/06/08 00:09:16;;;;;;;2.47;2.28;;;16.30;85.50;;;;;;5043378;28;20021;-80
2023/06/08 00:11:41;;;;;;;2.47;2.28;;;16.30;85.60;;;;;;5051998;28;20473;-82
2023/06/08 00:14:07;;;;;;;2.70;2.50;;;16.40;86.10;;;;;;5068468;28;20063;-82
2023/06/08 00:16:34;;;;;;;2.15;2.05;;;16.30;86.30;;;;;;5061426;28;20064;-81
2023/06/08 00:19:01;;;;;;;3.50;3.17;;;16.30;86.60;;;;;;5043873;28;20115;-82
2023/06/08 00:21:29;;;;;;;3.55;3.25;;;16.20;86.90;;;;;;5061414;28;20052;-80
2023/06/08 00:23:55;;;;;;;3.97;3.20;;;16.20;87.30;;;;;;5070488;28;20031;-80
2023/06/08 00:26:25;;;;;;;3.25;2.95;;;16.20;87.60;;;;;;5045189;28;20021;-83
2023/06/08 00:28:51;;;;;;;4.57;3.75;;;16.10;87.70;;;;;;5045213;28;20124;-82
2023/06/08 00:31:16;;;;;;;3.53;3.10;;;16.10;88.00;;;;;;5063858;28;20025;-83
2023/06/08 00:33:42;;;;;;;3.63;3.33;;;16.00;88.80;;;;;;5062381;28;20025;-82
2023/06/08 00:36:08;;;;;;;3.15;2.60;;;16.00;89.00;;;;;;5060681;28;20456;-83
2023/06/08 00:38:34;;;;;;;3.22;2.83;;;16.00;88.50;;;;;;5043837;28;20485;-82
2023/06/08 00:41:00;;;;;;;2.80;2.60;;;16.00;88.50;;;;;;5063448;28;20033;-82
2023/06/08 00:43:26;;;;;;;3.15;2.85;;;16.00;88.50;;;;;;5065786;28;20024;-82
2023/06/08 00:45:55;;;;;;;3.13;2.78;;;16.00;88.70;;;;;;5060880;28;20580;-81
2023/06/08 00:48:22;;;;;;;3.33;2.95;;;15.90;88.90;;;;;;5057826;28;20073;-80
2023/06/08 00:50:50;;;;;;;3.67;3.28;;;15.90;89.10;;;;;;5070576;28;20079;-80
2023/06/08 00:53:16;;;;;;;3.58;3.28;;;15.90;89.50;;;;;;5050157;28;20016;-78
2023/06/08 00:55:43;;;;;;;3.95;3.55;;;15.80;89.90;;;;;;5073574;28;20107;-80
2023/06/08 00:58:13;;;;;;;3.63;3.10;;;15.80;90.10;;;;;;5072439;28;20036;-82
2023/06/08 01:00:40;;;;;;;3.22;2.92;;;15.80;90.20;;;;;;5064030;28;20028;-82
2023/06/08 01:03:06;;;;;;;3.10;2.80;;;15.70;90.30;;;;;;5045983;28;20047;-82
2023/06/08 01:05:33;;;;;;;2.78;2.53;;;15.60;90.50;;;;;;5063674;28;20035;-83
2023/06/08 01:08:13;;;;;;;3.20;2.90;;;15.60;90.60;;;;;;5063316;28;20024;-84
2023/06/08 01:11:02;;;;;;;2.65;2.45;;;15.60;90.70;;;;;;5045698;28;20028;-79
2023/06/08 01:13:46;;;;;;;2.70;2.50;;;15.60;90.80;;;;;;5058792;28;20025;-80
2023/06/08 01:16:15;;;;;;;2.90;2.70;;;15.60;90.90;;;;;;5050464;28;20048;-83
2023/06/08 01:18:43;;;;;;;3.00;2.70;;;15.50;91.00;;;;;;5045404;28;20067;-83
2023/06/08 01:21:42;;;;;;;2.78;2.53;;;15.50;91.30;;;;;;5044116;28;20079;-81
2023/06/08 01:24:23;;;;;;;2.80;2.60;;;15.50;91.40;;;;;;5045311;28;20108;-81
2023/06/08 01:26:50;;;;;;;2.20;2.00;;;15.50;91.60;;;;;;5045693;28;20040;-82
2023/06/08 01:29:21;;;;;;;2.42;2.22;;;15.40;91.60;;;;;;5062075;28;20029;-83
2023/06/08 01:31:47;;;;;;;2.77;2.57;;;15.40;91.70;;;;;;5063010;28;20017;-82
2023/06/08 01:34:14;;;;;;;2.85;2.53;;;15.40;91.80;;;;;;5071877;28;20033;-80
2023/06/08 01:36:40;;;;;;;3.00;2.75;;;15.30;91.90;;;;;;5062683;28;20024;-82
2023/06/08 01:39:09;;;;;;;3.33;2.60;;;15.40;91.90;;;;;;5069209;28;20072;-81
2023/06/08 01:41:40;;;;;;;2.88;2.58;;;15.30;92.10;;;;;;5062334;28;20477;-80
2023/06/08 01:44:09;;;;;;;2.67;2.47;;;15.30;92.20;;;;;;5043206;28;20379;-82
2023/06/08 01:46:35;;;;;;;3.00;2.70;;;15.30;92.20;;;;;;5046966;28;20032;-78
2023/06/08 01:49:04;;;;;;;3.08;2.78;;;15.30;92.30;;;;;;5069809;28;20028;-81
2023/06/08 01:51:31;;;;;;;3.35;2.90;;;15.30;92.30;;;;;;5067186;28;20056;-81
2023/06/08 01:54:06;;;;;;;2.80;2.60;;;15.30;92.20;;;;;;5075600;28;20385;-78
2023/06/08 01:56:34;;;;;;;2.70;2.50;;;15.20;92.10;;;;;;5052315;28;20044;-81
2023/06/08 01:59:00;;;;;;;2.90;2.70;;;15.20;92.30;;;;;;5059816;28;20425;-81
2023/06/08 02:01:26;;;;;;;2.58;2.38;;;15.20;92.40;;;;;;5043325;28;20033;-81
2023/06/08 02:03:52;;;;;;;2.78;2.58;;;15.20;92.60;;;;;;5062345;28;20061;-82
2023/06/08 02:06:18;;;;;;;2.30;2.10;;;15.20;92.70;;;;;;5046543;28;20033;-82
2023/06/08 02:08:44;;;;;;;3.05;2.80;;;15.10;92.50;;;;;;5045538;28;20025;-81
2023/06/08 02:11:10;;;;;;;3.58;3.28;;;15.00;92.50;;;;;;5044451;28;20021;-81
2023/06/08 02:13:43;;;;;;;3.10;2.80;;;15.00;92.60;;;;;;5049477;28;20036;-81
2023/06/08 02:16:09;;;;;;;4.68;3.28;;;15.00;92.60;;;;;;5062737;28;20505;-81
2023/06/08 02:18:40;;;;;;;3.03;2.72;;;15.00;92.60;;;;;;5063608;28;20085;-82
2023/06/08 02:21:10;;;;;;;3.20;2.90;;;15.00;92.50;;;;;;5063162;28;20036;-79
2023/06/08 02:23:36;;;;;;;2.75;2.55;;;14.90;92.20;;;;;;5092207;28;20017;-79
2023/06/08 02:26:02;;;;;;;2.97;2.67;;;14.80;92.20;;;;;;5038222;28;20038;-78
2023/06/08 02:28:28;;;;;;;3.15;2.88;;;14.70;92.20;;;;;;5035658;28;20034;-81
2023/06/08 02:30:53;;;;;;;2.60;2.40;;;14.80;92.40;;;;;;5054868;28;20150;-78
2023/06/08 02:33:20;;;;;;;2.60;2.40;;;14.70;92.40;;;;;;5043965;28;20040;-82
2023/06/08 02:35:46;;;;;;;3.22;2.92;;;14.70;92.30;;;;;;5042680;28;20030;-81
2023/06/08 02:38:12;;;;;;;3.00;2.70;;;14.70;92.50;;;;;;5057730;28;20105;-82
2023/06/08 02:40:38;;;;;;;3.03;2.80;;;14.70;92.60;;;;;;5062703;28;20082;-83
2023/06/08 02:43:03;;;;;;;3.40;2.95;;;14.60;92.50;;;;;;5060779;28;20032;-82
2023/06/08 02:45:30;;;;;;;3.03;2.67;;;14.70;92.50;;;;;;5046188;28;20074;-81
2023/06/08 02:47:57;;;;;;;2.88;2.60;;;14.60;92.40;;;;;;5066266;28;20021;-83
2023/06/08 02:50:23;;;;;;;2.40;2.20;;;14.60;92.30;;;;;;5065837;28;20031;-81
2023/06/08 02:52:49;;;;;;;2.90;2.70;;;14.60;92.30;;;;;;5076672;28;20389;-82
2023/06/08 02:55:15;;;;;;;3.53;2.97;;;14.60;92.30;;;;;;5067596;28;20058;-80
2023/06/08 02:57:41;;;;;;;3.10;2.80;;;14.50;92.30;;;;;;5072648;28;20061;-79
2023/06/08 03:00:08;;;;;;;2.65;2.40;;;14.50;92.30;;;;;;5072609;28;20040;-81
2023/06/08 03:02:37;;;;;;;2.80;2.50;;;14.40;92.30;;;;;;5055439;28;20367;-82
2023/06/08 03:05:03;;;;;;;2.58;2.38;;;14.30;92.30;;;;;;5072290;28;20029;-74
2023/06/08 03:07:31;;;;;;;3.55;3.25;;;14.30;92.40;;;;;;5056954;28;20021;-76
2023/06/08 03:09:56;;;;;;;3.03;2.60;;;14.30;92.50;;;;;;5056670;28;20017;-76
2023/06/08 03:12:22;;;;;;;3.40;3.10;;;14.30;92.50;;;;;;5056110;28;20033;-76
2023/06/08 03:14:50;;;;;;;2.78;2.58;;;14.20;92.50;;;;;;5055788;28;20040;-74
2023/06/08 03:17:17;;;;;;;2.78;2.55;;;14.20;92.60;;;;;;5055213;28;20017;-75
2023/06/08 03:19:46;;;;;;;3.55;3.25;;;14.20;92.60;;;;;;5054052;28;20583;-74
2023/06/08 03:22:11;;;;;;;3.22;2.95;;;14.20;92.70;;;;;;5054339;28;20070;-75
2023/06/08 03:24:37;;;;;;;2.58;2.38;;;14.30;92.60;;;;;;5061671;28;20029;-75
2023/06/08 03:27:06;;;;;;;2.78;2.58;;;14.20;92.60;;;;;;5036336;28;20071;-75
2023/06/08 03:29:31;;;;;;;2.58;2.33;;;14.30;92.70;;;;;;5054369;28;20052;-75
2023/06/08 03:31:58;;;;;;;2.45;2.25;;;14.30;92.60;;;;;;5055356;28;20380;-75
2023/06/08 03:34:27;;;;;;;2.63;2.38;;;14.30;92.50;;;;;;5055806;28;20025;-75
2023/06/08 03:36:53;;;;;;;2.95;2.75;;;14.30;92.50;;;;;;5054403;28;20028;-74
2023/06/08 03:39:19;;;;;;;3.13;2.83;;;14.30;92.60;;;;;;5054084;28;20078;-75
2023/06/08 03:41:45;;;;;;;3.30;3.00;;;14.30;92.70;;;;;;5062272;28;20033;-75
2023/06/08 03:44:10;;;;;;;4.03;3.63;;;14.30;92.80;;;;;;5053966;28;20462;-75
2023/06/08 03:46:36;;;;;;;3.15;2.85;;;14.30;93.10;;;;;;5053194;28;20162;-75
2023/06/08 03:49:02;;;;;;;2.92;2.72;;;14.30;93.30;;;;;;5053845;28;20088;-74
2023/06/08 03:51:27;;;;;;;4.07;3.67;;;14.30;93.30;;;;;;5054314;28;20029;-76
2023/06/08 03:53:53;;;;;;;4.65;4.00;;;14.30;93.30;;;;;;5064149;28;20064;-76
2023/06/08 03:56:19;;;;;;;4.50;4.05;;;14.20;93.40;;;;;;5056347;28;20389;-75
2023/06/08 03:58:45;;;;;;;4.57;3.92;;;14.20;93.40;;;;;;5053559;28;20029;-74
2023/06/08 04:01:14;;;;;;;4.18;3.78;;;14.20;93.50;;;;;;5053760;28;20084;-75
2023/06/08 04:03:41;;;;;;;4.13;3.72;;;14.20;93.40;;;;;;5053532;28;20021;-74
2023/06/08 04:06:08;;;;;;;4.28;3.83;;;14.20;93.20;;;;;;5052959;28;20048;-74
2023/06/08 04:08:41;;;;;;;3.85;3.45;;;14.20;93.10;;;;;;5055550;28;20565;-75
2023/06/08 04:11:08;;;;;;;3.25;2.95;;;14.20;92.90;;;;;;5062525;28;20479;-76
2023/06/08 04:13:36;;;;;;;3.05;2.75;;;14.20;92.80;;;;;;5055509;28;20087;-76
2023/06/08 04:16:07;;;;;;;3.38;3.05;;;14.30;92.80;;;;;;5033213;28;20033;-75
2023/06/08 04:18:32;;;;;;;2.85;2.65;;;14.30;92.70;;;;;;5033836;28;20032;-74
2023/06/08 04:20:58;;;;;;;3.00;2.70;;;14.30;92.80;;;;;;5033477;28;20029;-75
2023/06/08 04:23:24;;;;;;;3.00;2.65;;;14.40;92.80;;;;;;5060648;28;20100;-75
2023/06/08 04:25:49;;;;;;;2.45;2.25;;;14.40;92.70;;;;;;5053677;28;20025;-76
2023/06/08 04:28:15;;;;;;;2.65;2.45;;;14.50;92.50;;;;;;5066853;28;20043;-76
2023/06/08 04:30:41;;;;;;;2.88;2.67;;;14.50;92.30;;;;;;5054282;28;20033;-79
2023/06/08 04:33:08;;;;;;;2.70;2.50;;;14.60;92.00;;;;;;5058748;28;20025;-78
2023/06/08 04:35:37;;;;;;;2.90;2.60;;;14.60;91.80;;;;;;5042219;28;20513;-81
2023/06/08 04:38:03;;;;;;;2.80;2.60;;;14.70;91.70;;;;;;5030713;28;20040;-79
2023/06/08 04:40:33;;;;;;;2.55;2.35;;;14.80;91.40;;;;;;5037938;28;20055;-77
2023/06/08 04:42:59;;;;;;;1.80;1.70;;;14.90;91.20;;;;;;5061182;28;20104;-79
2023/06/08 04:45:25;;;;;;;2.05;1.95;;;15.10;90.90;;;;;;5071510;28;20024;-79
2023/06/08 04:47:51;;;;;;;3.53;2.33;;;15.20;90.60;;;;;;5069150;28;20017;-78
2023/06/08 04:50:18;;;;;;;2.53;2.33;;;15.30;90.30;;;;;;5064861;28;20028;-80
2023/06/08 04:52:45;;;;;;;2.80;2.60;;;15.30;90.10;;;;;;5068416;28;20025;-80
2023/06/08 04:55:13;;;;;;;2.60;2.08;;;15.40;89.40;;;;;;5063683;28;20029;-79
2023/06/08 04:57:42;;;;;;;2.38;2.17;;;15.50;88.80;;;;;;5058092;28;20028;-79
2023/06/08 05:00:09;;;;;;;1.90;1.80;;;15.60;88.50;;;;;;5048934;28;20058;-79
2023/06/08 05:02:36;;;;;;;2.25;2.05;;;15.70;87.90;;;;;;5078716;28;20115;-78
2023/06/08 05:05:03;;;;;;;2.00;1.88;;;15.80;87.50;;;;;;5073369;28;20373;-79
2023/06/08 05:07:29;;;;;;;1.88;1.77;;;16.20;88.10;;;;;;5056329;28;20150;-79
2023/06/08 05:09:56;;;;;;;1.65;1.55;;;;;;;;;;5042718;28;20489;-79
2023/06/08 05:12:22;;;;;;;1.38;1.30;;;19.60;79.10;;;;;;5040423;28;20044;-78
2023/06/08 05:14:48;;;;;;;1.00;1.00;;;21.50;73.30;;;;;;5059498;28;20024;-78
2023/06/08 05:17:13;;;;;;;1.10;1.10;;;22.50;66.20;;;;;;5061497;28;20363;-80
2023/06/08 05:19:39;;;;;;;1.42;1.33;;;23.20;62.70;;;;;;5042868;28;20037;-79
2023/06/08 05:22:05;;;;;;;1.00;1.00;;;24.10;60.40;;;;;;5061039;28;20028;-79
2023/06/08 05:24:31;;;;;;;1.00;1.00;;;25.20;57.80;;;;;;5056937;28;20044;-78
2023/06/08 05:26:56;;;;;;;0.95;0.95;;;26.20;54.50;;;;;;5078511;28;20028;-79
2023/06/08 05:29:22;;;;;;;0.80;0.80;;;27.20;52.60;;;;;;5059996;28;20040;-78
2023/06/08 05:31:49;;;;;;;0.70;0.70;;;28.00;50.60;;;;;;5078685;28;20064;-80
2023/06/08 05:34:15;;;;;;;0.80;0.80;;;28.50;48.80;;;;;;5076762;28;20088;-79
2023/06/08 05:36:40;;;;;;;1.00;1.00;;;28.50;47.30;;;;;;5060752;28;20106;-79
2023/06/08 05:39:06;;;;;;;1.05;1.05;;;27.60;46.50;;;;;;5062527;28;20074;-79
2023/06/08 05:41:32;;;;;;;1.00;1.00;;;26.60;48.50;;;;;;5059800;28;20133;-79
2023/06/08 05:43:58;;;;;;;0.88;0.88;;;25.80;49.10;;;;;;5057585;28;20053;-79
2023/06/08 05:46:23;;;;;;;0.70;0.70;;;24.50;50.60;;;;;;5040447;28;20393;-79
2023/06/08 05:48:49;;;;;;;0.82;0.82;;;23.30;52.90;;;;;;5057764;28;20017;-79
2023/06/08 05:51:15;;;;;;;0.90;0.90;;;22.20;55.30;;;;;;5040779;28;20554;-78
2023/06/08 05:53:41;;;;;;;1.10;1.10;;;21.20;57.60;;;;;;5067558;28;20017;-77
2023/06/08 05:56:07;;;;;;;0.90;0.90;;;20.50;59.80;;;;;;5062201;28;20025;-78
2023/06/08 05:58:32;;;;;;;1.23;1.17;;;20.00;61.70;;;;;;5064023;28;20044;-77
2023/06/08 06:00:59;;;;;;;1.25;1.15;;;19.80;63.50;;;;;;5041990;28;20029;-79
2023/06/08 06:03:25;;;;;;;0.73;0.73;;;20.40;64.10;;;;;;5058587;28;20017;-79
2023/06/08 06:05:51;;;;;;;1.10;1.10;;;;;;;;;;5058668;28;20131;-80
2023/06/08 06:08:16;;;;;;;0.70;0.70;;;22.00;60.00;;;;;;5040934;28;20421;-79
2023/06/08 06:10:42;;;;;;;0.70;0.70;;;22.40;59.40;;;;;;5057829;28;20029;-79
2023/06/08 06:13:08;;;;;;;0.70;0.70;;;22.90;58.20;;;;;;5056295;28;20031;-78
2023/06/08 06:15:34;;;;;;;0.73;0.73;;;23.80;56.70;;;;;;5039967;28;20129;-77
2023/06/08 06:18:00;;;;;;;0.65;0.65;;;24.80;55.50;;;;;;5041151;28;20060;-78
2023/06/08 06:20:29;;;;;;;0.75;0.75;;;26.20;52.90;;;;;;5061953;28;20466;-78
2023/06/08 06:22:55;;;;;;;1.42;1.33;;;27.00;50.80;;;;;;5052282;28;20044;-79
2023/06/08 06:25:21;;;;;;;1.60;1.50;;;27.00;48.90;;;;;;5076348;28;20501;-78
2023/06/08 06:27:47;;;;;;;1.40;1.38;;;26.40;49.20;;;;;;5070605;28;20133;-81
2023/06/08 06:30:14;;;;;;;1.20;1.20;;;25.90;50.20;;;;;;5044000;28;20051;-80
2023/06/08 06:32:39;;;;;;;1.65;1.55;;;26.20;50.80;;;;;;5061966;28;20433;-79
2023/06/08 06:35:06;;;;;;;1.65;1.55;;;27.00;49.90;;;;;;5045216;28;20120;-82
2023/06/08 06:37:35;;;;;;;1.15;1.15;;;27.50;48.90;;;;;;5047282;28;20032;-79
2023/06/08 06:40:03;;;;;;;1.38;1.38;;;28.30;48.00;;;;;;5053385;28;20029;-79
2023/06/08 06:42:30;;;;;;;1.58;1.48;;;29.00;46.70;;;;;;5077359;28;20005;-78
2023/06/08 06:44:55;;;;;;;1.30;1.30;;;29.50;45.70;;;;;;5078329;28;20017;-78
2023/06/08 06:47:21;;;;;;;1.77;1.60;;;30.40;44.60;;;;;;5077273;28;20041;-77
2023/06/08 06:49:47;;;;;;;1.45;1.45;;;30.90;43.40;;;;;;5078026;28;20017;-78
2023/06/08 06:52:12;;;;;;;2.13;2.00;;;31.20;42.70;;;;;;5062157;28;20033;-79
2023/06/08 06:54:38;;;;;;;1.33;1.33;;;31.00;42.10;;;;;;5074818;28;20108;-80
2023/06/08 06:57:04;;;;;;;1.45;1.45;;;31.10;42.30;;;;;;5081947;28;20242;-81
2023/06/08 06:59:30;;;;;;;1.85;1.75;;;30.50;41.90;;;;;;5079612;28;20030;-79
2023/06/08 07:01:56;;;;;;;1.75;1.65;;;29.70;43.00;;;;;;5061690;28;20123;-79
2023/06/08 07:04:22;;;;;;;1.80;1.70;;;29.50;43.10;;;;;;5061332;28;20082;-79
2023/06/08 07:06:50;;;;;;;1.90;1.80;;;28.60;43.80;;;;;;5061882;28;20017;-79
2023/06/08 07:09:16;;;;;;;1.65;1.55;;;28.00;45.00;;;;;;5043705;28;20060;-81
2023/06/08 07:11:42;;;;;;;1.67;1.58;;;27.00;45.80;;;;;;5061308;28;20084;-81
2023/06/08 07:14:08;;;;;;;1.77;1.67;;;26.20;47.30;;;;;;5060362;28;20059;-80
2023/06/08 07:16:33;;;;;;;1.92;1.83;;;25.30;48.50;;;;;;5061607;28;20084;-79
2023/06/08 07:18:59;;;;;;;2.08;1.98;;;24.50;50.50;;;;;;5060257;28;20083;-79
2023/06/08 07:21:25;;;;;;;1.90;1.80;;;23.90;52.20;;;;;;5043154;28;20036;-78
2023/06/08 07:23:51;;;;;;;2.75;2.55;;;23.50;54.00;;;;;;5069772;28;20028;-78
2023/06/08 07:26:17;;;;;;;2.85;2.65;;;23.20;54.60;;;;;;5060529;28;20021;-79
2023/06/08 07:28:43;;;;;;;2.17;2.00;;;22.90;55.70;;;;;;5043132;28;20025;-79
2023/06/08 07:31:08;;;;;;;2.78;2.30;;;22.80;56.20;;;;;;5043397;28;20043;-80
2023/06/08 07:33:34;;;;;;;3.13;2.78;;;22.90;56.40;;;;;;5060295;28;20025;-79
2023/06/08 07:36:00;;;;;;;4.03;3.38;;;22.80;56.80;;;;;;5072249;28;20027;-77
2023/06/08 07:38:26;;;;;;;3.67;3.38;;;22.60;57.40;;;;;;5073190;28;20036;-79
2023/06/08 07:40:51;;;;;;;4.13;3.80;;;22.40;58.20;;;;;;5066291;28;20021;-78
2023/06/08 07:43:17;;;;;;;4.50;4.07;;;22.30;59.00;;;;;;5074894;28;20051;-77
2023/06/08 07:45:44;;;;;;;3.75;3.45;;;22.10;59.80;;;;;;5064142;28;20028;-79
2023/06/08 07:48:09;;;;;;;4.07;3.70;;;22.20;61.00;;;;;;5063791;28;20041;-79
2023/06/08 07:50:35;;;;;;;3.50;3.20;;;22.30;60.60;;;;;;5058092;28;20151;-78
2023/06/08 07:53:01;;;;;;;3.15;2.92;;;22.30;60.50;;;;;;5071780;28;20037;-79
2023/06/08 07:55:26;;;;;;;3.90;3.00;;;22.40;60.50;;;;;;5065112;28;20025;-79
2023/06/08 07:57:52;;;;;;;3.13;2.83;;;22.40;60.80;;;;;;5066625;28;20036;-78
2023/06/08 08:00:18;;;;;;;3.17;2.97;;;22.30;61.50;;;;;;5064810;28;20029;-78
2023/06/08 08:02:44;;;;;;;3.85;3.45;;;22.20;61.90;;;;;;5066667;28;20029;-78
2023/06/08 08:05:10;;;;;;;3.33;3.03;;;22.20;62.20;;;;;;5063627;28;20009;-78
2023/06/08 08:07:36;;;;;;;2.85;2.65;;;22.20;62.50;;;;;;5061133;28;20017;-79
2023/06/08 08:10:03;;;;;;;3.05;2.85;;;22.20;62.70;;;;;;5059682;28;20060;-78
2023/06/08 08:12:29;;;;;;;2.83;2.63;;;22.30;63.00;;;;;;5059736;28;20174;-78
2023/06/08 08:14:54;;;;;;;4.50;3.80;;;22.40;62.70;;;;;;5058936;28;20174;-78
2023/06/08 08:17:20;;;;;;;3.95;3.65;;;22.40;62.20;;;;;;5061427;28;20025;-78
2023/06/08 08:19:45;;;;;;;3.63;3.33;;;22.40;62.00;;;;;;5059569;28;20029;-79
2023/06/08 08:22:11;;;;;;;3.30;3.10;;;22.40;61.90;;;;;;5046142;28;20507;-79
2023/06/08 08:24:38;;;;;;;4.03;3.63;;;22.50;61.60;;;;;;5071211;28;20025;-80
2023/06/08 08:27:04;;;;;;;3.65;3.35;;;22.70;61.60;;;;;;5061467;28;20127;-78
2023/06/08 08:29:30;;;;;;;3.33;3.03;;;22.80;61.30;;;;;;5079180;28;20017;-78
2023/06/08 08:31:56;;;;;;;3.50;2.85;;;22.90;61.20;;;;;;5061595;28;20024;-78
2023/06/08 08:34:22;;;;;;;3.13;2.88;;;23.10;60.90;;;;;;5078682;28;20040;-79
2023/06/08 08:36:48;;;;;;;3.55;2.92;;;23.30;60.50;;;;;;5079438;28;20025;-79
2023/06/08 08:39:14;;;;;;;3.78;3.47;;;23.30;60.50;;;;;;5063148;28;20154;-79
2023/06/08 08:41:41;;;;;;;5.20;4.40;;;23.40;60.60;;;;;;5059413;28;20035;-79
2023/06/08 08:44:16;;;;;;;4.30;3.90;;;23.40;60.40;;;;;;5041648;28;20377;-79
2023/06/08 08:46:43;;;;;;;3.67;3.38;;;23.40;60.70;;;;;;5058821;28;20035;-79
2023/06/08 08:49:16;;;;;;;3.40;3.20;;;23.60;60.40;;;;;;5061962;28;20017;-79
2023/06/08 08:51:52;;;;;;;3.25;3.03;;;23.70;60.00;;;;;;5067021;28;20059;-79
2023/06/08 08:54:25;;;;;;;3.88;3.58;;;23.70;59.90;;;;;;5060618;28;20025;-79
2023/06/08 08:56:55;;;;;;;4.93;4.43;;;23.90;59.90;;;;;;5065749;28;20033;-78
2023/06/08 08:59:23;;;;;;;4.45;4.05;;;23.70;60.60;;;;;;5053480;28;20017;-78
2023/06/08 09:01:49;;;;;;;4.45;4.05;;;23.80;61.10;;;;;;5064834;28;20021;-78
2023/06/08 09:04:14;;;;;;;4.55;4.15;;;23.70;61.20;;;;;;5061186;28;20040;-78
2023/06/08 09:06:47;;;;;;;3.95;3.28;;;23.70;60.70;;;;;;5069628;28;20358;-78
2023/06/08 09:09:13;;;;;;;3.45;3.25;;;23.80;60.40;;;;;;5053272;28;20058;-79
2023/06/08 09:11:58;;;;;;;3.78;3.10;;;23.90;60.40;;;;;;5071276;28;20029;-78
2023/06/08 09:14:25;;;;;;;5.55;4.25;;;24.10;60.30;;;;;;5053431;28;20036;-78
2023/06/08 09:16:51;;;;;;;4.05;3.65;;;24.20;59.20;;;;;;5053658;28;20454;-77
2023/06/08 09:19:17;;;;;;;4.57;4.18;;;24.20;59.80;;;;;;5064355;28;20037;-79
2023/06/08 09:21:43;;;;;;;3.70;3.40;;;24.10;60.20;;;;;;5059897;28;20527;-80
2023/06/08 09:24:14;;;;;;;3.00;2.80;;;24.30;60.40;;;;;;5077260;28;20031;-80
2023/06/08 09:26:46;;;;;;;3.45;3.20;;;24.40;60.10;;;;;;5042548;28;20049;-78
2023/06/08 09:29:30;;;;;;;4.72;4.38;;;24.70;59.60;;;;;;5059169;28;20048;-79
2023/06/08 09:31:56;;;;;;;4.70;4.30;;;24.70;60.00;;;;;;5041494;28;20051;-79
2023/06/08 09:34:21;;;;;;;3.78;3.47;;;24.40;60.50;;;;;;5058743;28;20033;-80
2023/06/08 09:36:48;;;;;;;4.90;4.50;;;24.00;62.00;;;;;;5046164;28;20028;-80
2023/06/08 09:39:14;;;;;;;4.97;4.57;;;23.90;62.30;;;;;;5059486;28;20077;-78
2023/06/08 09:41:40;;;;;;;4.25;3.85;;;24.00;62.80;;;;;;5042329;28;20045;-79
2023/06/08 09:44:18;;;;;;;4.55;4.15;;;23.90;63.40;;;;;;5058147;28;20122;-79
2023/06/08 09:46:45;;;;;;;4.35;3.95;;;24.10;62.90;;;;;;5041251;28;20025;-78
2023/06/08 09:49:15;;;;;;;3.75;3.53;;;24.10;62.50;;;;;;5060714;28;20025;-78
2023/06/08 09:51:49;;;;;;;4.78;4.38;;;24.10;62.60;;;;;;5060618;28;20474;-79
2023/06/08 09:54:20;;;;;;;4.40;4.00;;;24.20;62.00;;;;;;5051155;28;20385;-79
2023/06/08 09:56:54;;;;;;;4.03;3.63;;;24.50;61.60;;;;;;5063446;28;20557;-79
2023/06/08 09:59:22;;;;;;;3.90;3.60;;;24.60;61.50;;;;;;5077550;22;20380;-77
2023/06/08 10:01:55;;;;;;;3.60;3.30;;;24.70;61.00;;;;;;5044763;28;20068;-78
2023/06/08 10:04:23;;;;;;;3.25;3.05;;;24.90;60.30;;;;;;5051916;28;20055;-78
2023/06/08 10:06:55;;;;;;;3.13;2.83;;;25.20;59.90;;;;;;5072152;28;20124;-78
2023/06/08 10:09:27;;;;;;;3.80;3.50;;;25.60;59.10;;;;;;5055936;28;20032;-78
2023/06/08 10:11:58;;;;;;;3.45;3.17;;;25.80;57.80;;;;;;5056256;28;20029;-78
2023/06/08 10:14:26;;;;;;;3.92;3.63;;;26.00;57.00;;;;;;5040186;28;20071;-77
2023/06/08 10:16:54;;;;;;;4.65;3.58;;;25.90;57.80;;;;;;5049302;28;20090;-77
2023/06/08 10:19:20;;;;;;;5.20;3.58;;;25.80;57.80;;;;;;5016246;28;20037;-78
2023/06/08 10:21:48;;;;;;;3.92;3.15;;;25.70;57.60;;;;;;5022070;28;20033;-79
2023/06/08 10:24:15;;;;;;;4.05;3.53;;;25.50;57.70;;;;;;5063643;28;20033;-78
2023/06/08 10:26:41;;;;;;;4.10;3.70;;;25.70;57.80;;;;;;5039144;28;20021;-78
2023/06/08 10:29:10;;;;;;;5.15;3.60;;;25.60;57.20;;;;;;5051913;28;20112;-78
2023/06/08 10:31:41;;;;;;;3.75;3.45;;;25.60;57.90;;;;;;5032964;28;20090;-78
2023/06/08 10:34:19;;;;;;;3.42;3.13;;;25.80;57.10;;;;;;5032639;28;20036;-78
2023/06/08 10:36:46;;;;;;;3.70;3.40;;;26.10;56.60;;;;;;5050875;28;20033;-78
2023/06/08 10:39:14;;;;;;;3.92;3.50;;;26.30;55.30;;;;;;5032644;28;20018;-78
2023/06/08 10:41:40;;;;;;;3.67;3.35;;;26.30;55.50;;;;;;5050714;28;20405;-78
2023/06/08 10:44:32;;;;;;;3.80;3.20;;;26.50;55.20;;;;;;5032736;28;20024;-79
2023/06/08 10:47:03;;;;;;;3.50;3.20;;;26.30;54.40;;;;;;5032859;28;20018;-79
2023/06/08 10:49:34;;;;;;;3.90;3.60;;;26.30;54.70;;;;;;5033822;28;20033;-79
2023/06/08 10:52:03;;;;;;;3.20;2.90;;;26.20;55.00;;;;;;5056130;28;20029;-77
2023/06/08 10:54:30;;;;;;;3.50;3.20;;;26.10;55.10;;;;;;5069007;28;20021;-78
2023/06/08 10:56:58;;;;;;;5.57;3.20;;;26.10;54.60;;;;;;5054398;28;20025;-79
2023/06/08 10:59:34;;;;;;;3.70;3.40;;;26.20;54.60;;;;;;5068751;28;20063;-78
2023/06/08 11:02:04;;;;;;;3.30;3.00;;;26.20;54.00;;;;;;5066393;28;20083;-77
2023/06/08 11:04:31;;;;;;;3.60;2.95;;;26.40;54.00;;;;;;5046053;28;20033;-78
2023/06/08 11:07:04;;;;;;;3.15;2.92;;;26.40;54.00;;;;;;5036736;28;20102;-78
2023/06/08 11:09:36;;;;;;;3.38;3.10;;;26.30;53.50;;;;;;5029766;28;20032;-78
2023/06/08 11:12:03;;;;;;;3.03;2.83;;;26.20;53.40;;;;;;5049116;28;20055;-77
2023/06/08 11:14:29;;;;;;;3.17;2.88;;;26.10;54.00;;;;;;5028518;28;20029;-77
2023/06/08 11:16:56;;;;;;;2.90;2.70;;;26.40;53.70;;;;;;5042034;28;20430;-77
2023/06/08 11:19:23;;;;;;;2.80;2.60;;;26.60;53.00;;;;;;5045216;28;20055;-77
2023/06/08 11:21:53;;;;;;;2.97;2.78;;;26.70;53.00;;;;;;5028368;28;20162;-80
2023/06/08 11:24:20;;;;;;;2.60;2.42;;;26.80;52.80;;;;;;5028315;28;20048;-79
2023/06/08 11:26:46;;;;;;;3.63;3.33;;;26.90;52.50;;;;;;5055267;28;20043;-78
2023/06/08 11:29:13;;;;;;;3.30;3.00;;;27.00;51.80;;;;;;5052624;28;20041;-78
2023/06/08 11:31:41;;;;;;;3.20;2.95;;;27.00;51.50;;;;;;5051304;28;20037;-79
2023/06/08 11:34:13;;;;;;;2.95;2.70;;;27.00;51.60;;;;;;5038506;28;20025;-79
2023/06/08 11:36:40;;;;;;;3.25;2.95;;;26.90;51.50;;;;;;5038692;28;20037;-79
2023/06/08 11:39:10;;;;;;;3.35;3.05;;;27.00;51.20;;;;;;5032850;28;20076;-79
2023/06/08 11:41:36;;;;;;;2.90;2.67;;;26.90;51.00;;;;;;5045703;28;20018;-77
2023/06/08 11:44:02;;;;;;;3.10;2.90;;;26.60;51.60;;;;;;5047509;28;20037;-78
2023/06/08 11:46:28;;;;;;;3.75;2.72;;;26.50;52.10;;;;;;5051558;28;20033;-79
2023/06/08 11:49:08;;;;;;;3.25;2.83;;;26.30;52.30;;;;;;5052166;28;20089;-78
2023/06/08 11:51:40;;;;;;;2.85;2.65;;;26.30;52.10;;;;;;5031223;28;20032;-77
2023/06/08 11:54:06;;;;;;;3.00;2.70;;;26.50;51.80;;;;;;5048104;28;20025;-77
2023/06/08 11:56:35;;;;;;;2.50;2.40;;;26.70;51.40;;;;;;5050393;28;20021;-78
2023/06/08 11:59:02;;;;;;;2.83;2.60;;;26.80;51.20;;;;;;5058983;28;20020;-77
2023/06/08 12:01:28;;;;;;;2.85;2.65;;;27.00;50.90;;;;;;5076675;28;20060;-78
2023/06/08 12:03:54;;;;;;;2.80;2.60;;;27.10;50.10;;;;;;5057455;28;20028;-77
2023/06/08 12:06:24;;;;;;;2.80;2.60;;;27.00;50.30;;;;;;5060450;28;20021;-77
2023/06/08 12:08:50;;;;;;;2.30;2.10;;;27.00;50.70;;;;;;5044591;28;20045;-78
2023/06/08 12:11:16;;;;;;;2.63;2.42;;;27.20;50.60;;;;;;5045181;28;20025;-78
2023/06/08 12:13:42;;;;;;;2.85;2.65;;;27.50;50.40;;;;;;5026949;28;20026;-78
2023/06/08 12:16:10;;;;;;;2.58;2.38;;;27.70;49.60;;;;;;5044179;28;20109;-78
2023/06/08 12:18:39;;;;;;;3.08;2.78;;;27.80;49.60;;;;;;5024722;28;20045;-78
2023/06/08 12:21:07;;;;;;;2.80;2.60;;;28.10;49.00;;;;;;5045183;28;20039;-79
2023/06/08 12:23:33;;;;;;;2.50;2.40;;;28.40;48.60;;;;;;5059701;28;20090;-79
2023/06/08 12:25:59;;;;;;;3.30;3.00;;;28.60;47.90;;;;;;5048454;28;20029;-78
2023/06/08 12:28:25;;;;;;;3.35;2.50;;;28.60;47.50;;;;;;5056790;28;20064;-79
2023/06/08 12:30:52;;;;;;;4.25;2.97;;;28.50;48.00;;;;;;5031456;28;20032;-78
2023/06/08 12:33:19;;;;;;;3.03;2.75;;;28.30;47.60;;;;;;5028710;28;20033;-77
2023/06/08 12:35:49;;;;;;;3.20;2.95;;;28.00;48.20;;;;;;5027353;28;20089;-79
2023/06/08 12:38:16;;;;;;;2.97;2.78;;;27.90;48.70;;;;;;5024384;28;20030;-78
2023/06/08 12:40:47;;;;;;;4.25;3.22;;;27.80;49.10;;;;;;5018475;28;20054;-78
2023/06/08 12:43:15;;;;;;;2.97;2.78;;;27.60;48.60;;;;;;5036176;28;20017;-78
2023/06/08 12:45:42;;;;;;;2.65;2.45;;;27.30;49.20;;;;;;5018137;28;20025;-78
2023/06/08 12:48:08;;;;;;;2.60;2.40;;;27.00;49.80;;;;;;5016218;28;20500;-78
2023/06/08 12:50:34;;;;;;;2.25;2.13;;;26.70;50.30;;;;;;5033410;28;20052;-79